Time;durP1;ratioP1;P1;durP2;ratioP2;P2;SDS_P1;SDS_P2;PMS_P1;PMS_P2;Temp;Humidity;BMP_temperature;BMP_pressure;BME280_temperature;BME280_humidity;BME280_pressure;Samples;Min_cycle;Max_cycle;Signal;HPM_P1;HPM_P2
2024/01/09 00:01:33;;;;;;;3.67;3.37;;;11.20;50.60;;;;;;5019850;28;20905;-79
2024/01/09 00:04:02;;;;;;;5.43;4.23;;;11.10;50.60;;;;;;5037174;28;20556;-78
2024/01/09 00:06:31;;;;;;;8.03;3.80;;;11.20;50.50;;;;;;5032400;28;20468;-78
2024/01/09 00:09:00;;;;;;;9.13;6.80;;;11.10;50.50;;;;;;5047085;28;20461;-78
2024/01/09 00:11:28;;;;;;;16.40;8.00;;;11.10;50.50;;;;;;5051006;28;20520;-77
2024/01/09 00:13:56;;;;;;;13.03;7.73;;;11.10;50.60;;;;;;5038264;28;20443;-80
2024/01/09 00:16:24;;;;;;;12.17;7.33;;;11.10;50.60;;;;;;5031505;28;20451;-79
2024/01/09 00:18:54;;;;;;;11.93;7.10;;;11.10;50.60;;;;;;5031423;28;20959;-79
2024/01/09 00:21:22;;;;;;;10.40;6.50;;;11.10;50.70;;;;;;5026050;28;20506;-79
2024/01/09 00:23:51;;;;;;;12.83;7.30;;;11.00;50.50;;;;;;5031110;28;20535;-79
2024/01/09 00:26:20;;;;;;;11.50;7.50;;;11.00;50.40;;;;;;5036120;28;20451;-79
2024/01/09 00:28:48;;;;;;;13.43;7.93;;;11.10;50.70;;;;;;5045432;28;20433;-79
2024/01/09 00:31:16;;;;;;;15.33;8.93;;;11.00;50.70;;;;;;5050616;28;20493;-79
2024/01/09 00:33:44;;;;;;;14.53;8.40;;;11.00;50.50;;;;;;5051589;28;20466;-79
2024/01/09 00:36:12;;;;;;;14.53;8.37;;;11.00;50.40;;;;;;5051522;28;20438;-80
2024/01/09 00:38:40;;;;;;;15.57;8.90;;;11.00;50.60;;;;;;5051783;28;20497;-80
2024/01/09 00:41:09;;;;;;;13.27;8.47;;;11.00;50.60;;;;;;5051230;28;20474;-78
2024/01/09 00:43:38;;;;;;;15.30;8.80;;;11.00;50.60;;;;;;5036737;28;20466;-79
2024/01/09 00:46:06;;;;;;;16.63;8.70;;;11.00;50.60;;;;;;5043065;28;20438;-77
2024/01/09 00:48:34;;;;;;;14.37;8.77;;;11.00;50.40;;;;;;5051651;28;20446;-78
2024/01/09 00:51:03;;;;;;;13.57;8.33;;;11.00;50.60;;;;;;5034851;28;20483;-78
2024/01/09 00:53:31;;;;;;;14.03;8.33;;;10.90;50.40;;;;;;5030759;28;20527;-78
2024/01/09 00:55:59;;;;;;;12.67;7.73;;;10.90;50.50;;;;;;5030757;28;20879;-78
2024/01/09 00:58:29;;;;;;;14.10;8.23;;;10.90;50.50;;;;;;5028678;28;20455;-80
2024/01/09 01:00:57;;;;;;;15.53;8.27;;;10.90;50.40;;;;;;5030201;28;20465;-77
2024/01/09 01:03:25;;;;;;;10.97;7.07;;;10.90;50.50;;;;;;5031469;28;20472;-78
2024/01/09 01:05:53;;;;;;;14.30;7.70;;;10.90;50.50;;;;;;5030753;28;20451;-79
2024/01/09 01:08:21;;;;;;;10.90;7.57;;;10.90;50.60;;;;;;5030432;28;20447;-78
2024/01/09 01:10:50;;;;;;;12.30;7.27;;;10.90;50.60;;;;;;5030301;28;20460;-76
2024/01/09 01:13:18;;;;;;;14.37;7.63;;;10.90;50.30;;;;;;5030534;28;20447;-78
2024/01/09 01:15:47;;;;;;;15.70;7.50;;;10.80;50.40;;;;;;5030682;28;20471;-78
2024/01/09 01:18:15;;;;;;;10.20;6.90;;;10.80;50.40;;;;;;5035065;28;20443;-78
2024/01/09 01:20:43;;;;;;;15.50;7.13;;;10.80;50.30;;;;;;5032069;28;20424;-77
2024/01/09 01:23:12;;;;;;;12.93;7.03;;;10.80;50.30;;;;;;5030093;28;20474;-78
2024/01/09 01:25:39;;;;;;;11.50;6.63;;;10.80;50.40;;;;;;5029952;28;20439;-77
2024/01/09 01:28:07;;;;;;;13.70;7.40;;;10.80;50.20;;;;;;5030374;28;20523;-79
2024/01/09 01:30:35;;;;;;;11.27;6.70;;;10.80;50.40;;;;;;5029771;28;20432;-78
2024/01/09 01:33:04;;;;;;;9.63;6.00;;;10.70;50.30;;;;;;5027299;28;20448;-78
2024/01/09 01:35:32;;;;;;;9.23;6.07;;;10.70;50.30;;;;;;5029816;28;20447;-78
2024/01/09 01:38:00;;;;;;;9.60;6.40;;;10.70;50.20;;;;;;5030093;28;20439;-79
2024/01/09 01:40:28;;;;;;;9.33;5.70;;;10.70;50.20;;;;;;5029002;28;20494;-79
2024/01/09 01:42:57;;;;;;;8.73;6.27;;;10.70;50.20;;;;;;5029977;28;20436;-78
2024/01/09 01:45:25;;;;;;;8.23;5.50;;;10.70;50.10;;;;;;5027183;28;20428;-79
2024/01/09 01:47:53;;;;;;;8.83;5.57;;;10.70;50.10;;;;;;5029582;28;20475;-78
2024/01/09 01:50:23;;;;;;;10.50;6.37;;;10.70;50.20;;;;;;5027196;28;20455;-81
2024/01/09 01:52:50;;;;;;;8.57;6.30;;;10.70;50.10;;;;;;5029214;28;20464;-79
2024/01/09 01:55:20;;;;;;;7.17;5.20;;;10.70;50.10;;;;;;5032434;28;20507;-78
2024/01/09 01:57:48;;;;;;;8.67;5.87;;;10.60;50.00;;;;;;5037000;28;20518;-78
2024/01/09 02:00:17;;;;;;;8.00;5.70;;;10.60;50.00;;;;;;5032642;28;20439;-80
2024/01/09 02:02:45;;;;;;;10.50;5.53;;;10.60;50.00;;;;;;5030565;28;20495;-79
2024/01/09 02:05:13;;;;;;;7.93;5.10;;;10.60;50.00;;;;;;5030292;28;20467;-78
2024/01/09 02:07:43;;;;;;;6.83;4.73;;;10.60;50.00;;;;;;5029649;28;20951;-79
2024/01/09 02:10:12;;;;;;;8.20;4.90;;;10.60;50.10;;;;;;5030867;28;20451;-79
2024/01/09 02:12:40;;;;;;;8.60;5.20;;;10.60;49.80;;;;;;5030018;28;20455;-79
2024/01/09 02:15:09;;;;;;;6.60;4.50;;;10.50;49.70;;;;;;5033500;28;20447;-79
2024/01/09 02:17:38;;;;;;;6.80;4.67;;;10.50;49.90;;;;;;5033448;28;20506;-79
2024/01/09 02:20:08;;;;;;;8.40;4.73;;;10.50;49.80;;;;;;5033003;28;20447;-78
2024/01/09 02:22:36;;;;;;;5.80;4.10;;;10.50;49.80;;;;;;5032672;28;20533;-79
2024/01/09 02:25:06;;;;;;;7.57;4.93;;;10.50;49.80;;;;;;5027990;28;20476;-79
2024/01/09 02:27:40;;;;;;;6.70;4.37;;;10.50;50.00;;;;;;5033911;28;20439;-79
2024/01/09 02:30:10;;;;;;;6.27;4.53;;;10.50;49.60;;;;;;5030571;28;20447;-79
2024/01/09 02:32:39;;;;;;;5.33;4.33;;;10.40;49.70;;;;;;5035937;28;20502;-79
2024/01/09 02:35:07;;;;;;;8.50;4.63;;;10.40;49.80;;;;;;5035412;28;20436;-78
2024/01/09 02:37:35;;;;;;;6.47;4.10;;;10.40;49.70;;;;;;5036554;28;20447;-78
2024/01/09 02:40:03;;;;;;;4.07;3.50;;;10.40;49.80;;;;;;5035130;28;20526;-79
2024/01/09 02:42:31;;;;;;;7.23;4.23;;;10.40;49.80;;;;;;5035910;28;20503;-78
2024/01/09 02:44:59;;;;;;;5.40;3.80;;;10.40;49.70;;;;;;5046512;28;20596;-81
2024/01/09 02:47:28;;;;;;;6.03;3.70;;;10.40;49.60;;;;;;5054717;28;20443;-77
2024/01/09 02:49:57;;;;;;;5.17;3.67;;;10.40;49.40;;;;;;5054379;28;20508;-79
2024/01/09 02:52:25;;;;;;;6.30;4.40;;;10.30;49.70;;;;;;5050050;28;20498;-78
2024/01/09 02:54:53;;;;;;;6.90;3.43;;;10.40;49.60;;;;;;5055791;28;20474;-77
2024/01/09 02:57:21;;;;;;;4.17;3.70;;;10.30;49.50;;;;;;5051583;28;20482;-78
2024/01/09 02:59:49;;;;;;;4.50;3.60;;;10.30;49.30;;;;;;5043225;28;20539;-78
2024/01/09 03:02:17;;;;;;;6.00;3.93;;;10.30;49.30;;;;;;5034899;28;20503;-78
2024/01/09 03:04:47;;;;;;;3.93;3.03;;;10.30;49.40;;;;;;5039884;28;20494;-79
2024/01/09 03:07:15;;;;;;;3.47;3.17;;;10.30;49.40;;;;;;5035458;28;20452;-79
2024/01/09 03:09:43;;;;;;;5.60;3.60;;;10.30;49.50;;;;;;5034626;28;20448;-79
2024/01/09 03:12:11;;;;;;;3.50;3.00;;;10.30;49.40;;;;;;5033569;28;20472;-79
2024/01/09 03:14:41;;;;;;;4.40;3.40;;;10.30;49.10;;;;;;5032404;28;20444;-78
2024/01/09 03:17:09;;;;;;;4.07;3.30;;;10.20;49.20;;;;;;5037520;28;20447;-79
2024/01/09 03:19:37;;;;;;;4.20;2.97;;;10.20;49.30;;;;;;5052610;28;20434;-78
2024/01/09 03:22:06;;;;;;;3.37;2.90;;;10.20;49.00;;;;;;5053096;28;20541;-78
2024/01/09 03:24:34;;;;;;;3.27;2.97;;;10.20;49.30;;;;;;5054695;28;20474;-79
2024/01/09 03:27:03;;;;;;;5.80;2.83;;;10.20;49.40;;;;;;5054815;28;20448;-77
2024/01/09 03:29:30;;;;;;;3.63;2.97;;;10.20;49.30;;;;;;5054972;28;20442;-77
2024/01/09 03:31:58;;;;;;;5.93;3.20;;;10.20;49.30;;;;;;5048258;28;20481;-77
2024/01/09 03:34:26;;;;;;;6.07;2.77;;;10.10;49.70;;;;;;5045129;28;20511;-78
2024/01/09 03:36:54;;;;;;;3.03;2.67;;;10.20;49.20;;;;;;5035871;28;20447;-77
2024/01/09 03:39:23;;;;;;;3.00;2.70;;;10.10;49.00;;;;;;5035233;28;20519;-78
2024/01/09 03:41:53;;;;;;;5.03;3.23;;;10.10;49.10;;;;;;5033605;28;20471;-78
2024/01/09 03:44:21;;;;;;;3.90;2.83;;;10.10;49.00;;;;;;5035225;28;20471;-79
2024/01/09 03:46:49;;;;;;;4.63;3.20;;;10.10;49.00;;;;;;5034853;28;20452;-77
2024/01/09 03:49:17;;;;;;;3.23;2.80;;;10.10;49.10;;;;;;5031385;28;20450;-78
2024/01/09 03:51:45;;;;;;;3.47;2.80;;;10.10;49.10;;;;;;5047915;28;20471;-78
2024/01/09 03:54:13;;;;;;;2.83;2.63;;;10.10;49.00;;;;;;5053913;28;20486;-80
2024/01/09 03:56:42;;;;;;;4.27;2.87;;;10.10;49.10;;;;;;5053664;28;20443;-79
2024/01/09 03:59:10;;;;;;;4.23;2.80;;;10.10;48.80;;;;;;5042614;28;20461;-78
2024/01/09 04:01:39;;;;;;;3.50;2.60;;;10.00;48.80;;;;;;5044366;28;20454;-77
2024/01/09 04:04:07;;;;;;;3.10;2.80;;;10.00;49.00;;;;;;5054646;28;20438;-78
2024/01/09 04:06:43;;;;;;;2.70;2.50;;;10.00;49.00;;;;;;5054404;28;20510;-78
2024/01/09 04:09:12;;;;;;;2.70;2.50;;;10.00;48.80;;;;;;5053617;28;20457;-77
2024/01/09 04:11:45;;;;;;;3.57;2.50;;;10.00;48.70;;;;;;5052921;28;20482;-79
2024/01/09 04:14:14;;;;;;;2.47;2.37;;;10.00;48.90;;;;;;5053696;28;20853;-77
2024/01/09 04:16:45;;;;;;;3.07;2.70;;;10.00;48.70;;;;;;5046202;28;20470;-76
2024/01/09 04:19:13;;;;;;;2.60;2.40;;;10.00;48.90;;;;;;5041384;28;20439;-77
2024/01/09 04:21:41;;;;;;;3.83;2.53;;;10.00;48.80;;;;;;5065934;22;20524;-78
2024/01/09 04:24:09;;;;;;;3.30;2.43;;;10.00;48.80;;;;;;5071287;28;20510;-78
2024/01/09 04:26:37;;;;;;;2.37;2.17;;;10.00;48.90;;;;;;5070817;28;20475;-78
2024/01/09 04:29:07;;;;;;;3.07;2.53;;;9.90;49.50;;;;;;5071141;28;20468;-78
2024/01/09 04:31:35;;;;;;;2.10;2.00;;;9.90;49.50;;;;;;5069554;28;20466;-78
2024/01/09 04:34:03;;;;;;;2.80;2.57;;;9.90;49.60;;;;;;5070671;28;20436;-78
2024/01/09 04:36:31;;;;;;;2.80;2.33;;;9.90;49.70;;;;;;5070193;28;20453;-78
2024/01/09 04:39:00;;;;;;;2.40;2.20;;;9.90;49.50;;;;;;5070816;28;20520;-78
2024/01/09 04:41:28;;;;;;;3.03;2.33;;;9.90;49.70;;;;;;5070172;28;20972;-77
2024/01/09 04:43:56;;;;;;;2.60;2.40;;;9.90;49.60;;;;;;5070665;28;20434;-78
2024/01/09 04:46:25;;;;;;;2.07;1.93;;;9.90;49.50;;;;;;5071098;28;20552;-78
2024/01/09 04:48:53;;;;;;;2.37;2.17;;;9.90;49.50;;;;;;5070996;28;20438;-78
2024/01/09 04:51:21;;;;;;;1.90;1.80;;;9.90;49.60;;;;;;5069259;28;20509;-78
2024/01/09 04:53:48;;;;;;;2.67;2.07;;;9.80;49.30;;;;;;5070515;28;20474;-78
2024/01/09 04:56:17;;;;;;;2.20;2.00;;;9.80;49.50;;;;;;5070478;28;20465;-78
2024/01/09 04:58:45;;;;;;;2.13;2.03;;;9.80;49.40;;;;;;5070842;28;20437;-77
2024/01/09 05:01:13;;;;;;;2.60;2.40;;;9.80;49.40;;;;;;5070332;28;20477;-78
2024/01/09 05:03:46;;;;;;;2.57;2.33;;;9.80;49.50;;;;;;5070579;28;20503;-78
2024/01/09 05:06:15;;;;;;;2.27;1.97;;;9.80;49.30;;;;;;5064587;28;20521;-77
2024/01/09 05:08:44;;;;;;;2.67;2.47;;;9.80;49.30;;;;;;5070634;28;20456;-78
2024/01/09 05:11:12;;;;;;;2.13;2.00;;;9.70;49.40;;;;;;5069620;28;20458;-77
2024/01/09 05:13:43;;;;;;;2.20;2.00;;;9.70;49.30;;;;;;5070536;28;20449;-79
2024/01/09 05:16:11;;;;;;;2.27;2.07;;;9.70;49.40;;;;;;5070425;28;20448;-78
2024/01/09 05:18:40;;;;;;;2.47;2.10;;;9.70;49.40;;;;;;5070078;28;20434;-78
2024/01/09 05:21:09;;;;;;;2.53;2.33;;;9.70;49.20;;;;;;5069790;28;20434;-78
2024/01/09 05:23:37;;;;;;;2.30;2.10;;;9.70;49.20;;;;;;5069195;28;20445;-78
2024/01/09 05:26:06;;;;;;;2.80;2.40;;;9.70;49.20;;;;;;5069966;28;20466;-78
2024/01/09 05:28:34;;;;;;;1.87;1.77;;;9.70;49.40;;;;;;5070286;28;20450;-78
2024/01/09 05:31:02;;;;;;;2.50;2.30;;;9.70;49.20;;;;;;5069595;28;20489;-78
2024/01/09 05:33:31;;;;;;;2.20;2.00;;;9.70;49.30;;;;;;5070202;28;20483;-78
2024/01/09 05:35:59;;;;;;;2.20;2.00;;;9.70;49.20;;;;;;5070220;28;20453;-79
2024/01/09 05:38:29;;;;;;;2.43;2.23;;;9.70;49.20;;;;;;5070415;28;20441;-78
2024/01/09 05:40:56;;;;;;;3.47;2.77;;;9.70;49.20;;;;;;5068273;28;20461;-78
2024/01/09 05:43:24;;;;;;;3.07;2.40;;;9.60;49.20;;;;;;5069026;28;20446;-78
2024/01/09 05:45:52;;;;;;;2.20;1.90;;;9.60;49.10;;;;;;5070232;28;20457;-78
2024/01/09 05:48:20;;;;;;;2.20;2.10;;;9.60;49.10;;;;;;5074949;28;20536;-78
2024/01/09 05:50:48;;;;;;;2.70;2.10;;;9.60;49.20;;;;;;5073639;28;20447;-78
2024/01/09 05:53:17;;;;;;;2.30;2.10;;;9.60;49.10;;;;;;5074036;28;20477;-78
2024/01/09 05:55:46;;;;;;;1.93;1.80;;;9.60;49.30;;;;;;5068793;28;20452;-78
2024/01/09 05:58:14;;;;;;;2.40;2.20;;;9.60;49.20;;;;;;5066457;28;20446;-76
2024/01/09 06:00:42;;;;;;;1.90;1.80;;;9.60;49.20;;;;;;5065946;28;20496;-78
2024/01/09 06:03:10;;;;;;;2.40;2.20;;;9.50;49.20;;;;;;5071244;28;20550;-78
2024/01/09 06:05:38;;;;;;;2.10;1.90;;;9.50;49.00;;;;;;5069334;28;20491;-77
2024/01/09 06:08:07;;;;;;;2.40;2.20;;;9.50;49.30;;;;;;5071132;28;20454;-77
2024/01/09 06:10:35;;;;;;;2.50;2.27;;;9.50;49.10;;;;;;5067652;28;20492;-78
2024/01/09 06:13:04;;;;;;;2.03;1.93;;;9.50;49.10;;;;;;5070394;28;20506;-78
2024/01/09 06:15:32;;;;;;;1.97;1.83;;;9.50;49.20;;;;;;5074428;28;20434;-77
2024/01/09 06:18:00;;;;;;;2.30;2.20;;;9.50;49.10;;;;;;5074320;28;20471;-78
2024/01/09 06:20:28;;;;;;;2.33;2.13;;;9.40;49.10;;;;;;5074601;28;20449;-76
2024/01/09 06:22:56;;;;;;;2.07;1.87;;;9.40;49.00;;;;;;5066259;28;20466;-77
2024/01/09 06:25:24;;;;;;;2.27;2.07;;;9.50;49.00;;;;;;5067661;28;20475;-77
2024/01/09 06:27:53;;;;;;;2.00;1.90;;;9.40;49.20;;;;;;5090560;28;20509;-77
2024/01/09 06:30:22;;;;;;;2.53;2.33;;;9.40;49.00;;;;;;5074100;28;20484;-77
2024/01/09 06:32:51;;;;;;;2.90;1.90;;;9.40;49.00;;;;;;5074728;28;20466;-77
2024/01/09 06:35:19;;;;;;;1.60;1.50;;;9.40;49.00;;;;;;5074420;28;20507;-77
2024/01/09 06:37:47;;;;;;;2.40;2.13;;;9.40;49.10;;;;;;5074515;28;20437;-78
2024/01/09 06:40:19;;;;;;;2.30;1.83;;;9.40;49.00;;;;;;5074307;28;20449;-77
2024/01/09 06:42:48;;;;;;;2.50;2.23;;;9.40;48.80;;;;;;5073070;28;20475;-77
2024/01/09 06:45:16;;;;;;;2.57;1.73;;;9.40;49.00;;;;;;5068523;28;20940;-78
2024/01/09 06:47:46;;;;;;;3.33;2.30;;;9.40;49.00;;;;;;5056323;28;20486;-77
2024/01/09 06:50:14;;;;;;;2.00;1.90;;;9.40;48.90;;;;;;5065293;28;20430;-76
2024/01/09 06:53:00;;;;;;;2.33;2.13;;;9.40;49.00;;;;;;5062287;28;20477;-77
2024/01/09 06:55:28;;;;;;;2.40;2.10;;;9.40;49.00;;;;;;5071116;28;20520;-77
2024/01/09 06:57:55;;;;;;;2.00;1.80;;;9.30;49.10;;;;;;5068865;28;20477;-76
2024/01/09 07:00:24;;;;;;;2.90;2.50;;;9.40;49.00;;;;;;5062334;28;20445;-76
2024/01/09 07:02:53;;;;;;;2.20;2.00;;;9.30;48.90;;;;;;5072741;28;20466;-76
2024/01/09 07:05:21;;;;;;;3.60;2.30;;;9.30;49.10;;;;;;5067946;28;20541;-76
2024/01/09 07:07:50;;;;;;;2.80;2.00;;;9.30;48.90;;;;;;5070561;28;20472;-76
2024/01/09 07:10:18;;;;;;;4.37;2.53;;;9.30;48.80;;;;;;5068549;28;20444;-77
2024/01/09 07:12:46;;;;;;;2.30;2.10;;;9.30;48.60;;;;;;5064552;28;20462;-75
2024/01/09 07:15:15;;;;;;;3.37;2.40;;;9.20;48.20;;;;;;5070342;28;20458;-75
2024/01/09 07:17:45;;;;;;;2.90;2.33;;;9.20;48.10;;;;;;5065515;28;20423;-76
2024/01/09 07:20:15;;;;;;;3.27;2.50;;;9.20;48.00;;;;;;5055875;28;20469;-76
2024/01/09 07:22:43;;;;;;;2.90;2.70;;;9.20;47.80;;;;;;5065663;28;20453;-76
2024/01/09 07:25:16;;;;;;;4.00;2.80;;;9.10;47.70;;;;;;5067762;28;20433;-77
2024/01/09 07:27:44;;;;;;;3.07;2.77;;;9.10;47.70;;;;;;5073155;28;20473;-75
2024/01/09 07:30:13;;;;;;;2.30;2.20;;;9.10;47.40;;;;;;5067075;28;20442;-76
2024/01/09 07:32:41;;;;;;;3.90;2.57;;;9.10;47.30;;;;;;5080749;28;20547;-75
2024/01/09 07:35:09;;;;;;;2.33;2.20;;;9.10;47.30;;;;;;5061015;28;20447;-77
2024/01/09 07:37:39;;;;;;;2.90;2.53;;;9.10;47.40;;;;;;5062069;28;20445;-76
2024/01/09 07:40:09;;;;;;;3.57;2.40;;;9.00;47.70;;;;;;5053299;28;20458;-78
2024/01/09 07:42:37;;;;;;;3.33;2.40;;;9.10;48.00;;;;;;5067587;28;20450;-78
2024/01/09 07:45:20;;;;;;;3.47;2.50;;;9.10;48.10;;;;;;5077274;28;20507;-79
2024/01/09 07:47:48;;;;;;;2.50;2.30;;;9.10;48.30;;;;;;5074550;28;20504;-81
2024/01/09 07:50:16;;;;;;;3.90;2.53;;;9.10;48.40;;;;;;5065557;28;20517;-79
2024/01/09 07:52:45;;;;;;;2.90;2.60;;;9.10;48.70;;;;;;5062092;28;20461;-79
2024/01/09 07:55:14;;;;;;;3.63;2.90;;;9.10;48.80;;;;;;5062830;28;20503;-78
2024/01/09 07:57:42;;;;;;;4.70;2.47;;;9.10;48.70;;;;;;5065326;28;20533;-79
2024/01/09 08:00:11;;;;;;;2.50;2.30;;;9.10;48.90;;;;;;5064259;28;20534;-79
2024/01/09 08:02:39;;;;;;;4.47;2.73;;;9.10;49.00;;;;;;5062800;28;20486;-79
2024/01/09 08:05:07;;;;;;;2.60;2.40;;;9.10;49.00;;;;;;5064836;28;20437;-78
2024/01/09 08:07:35;;;;;;;2.80;2.40;;;9.10;49.20;;;;;;5063948;28;20470;-79
2024/01/09 08:10:05;;;;;;;2.90;2.60;;;9.20;49.20;;;;;;5065959;28;20522;-79
2024/01/09 08:12:33;;;;;;;7.03;2.70;;;9.20;49.20;;;;;;5071493;28;20445;-79
2024/01/09 08:15:01;;;;;;;5.50;2.53;;;9.20;49.10;;;;;;5067061;28;20430;-79
2024/01/09 08:17:29;;;;;;;9.50;2.53;;;9.20;49.30;;;;;;5065482;28;20576;-79
2024/01/09 08:19:58;;;;;;;4.80;3.10;;;9.20;49.40;;;;;;5066639;28;20422;-79
2024/01/09 08:22:27;;;;;;;2.77;2.50;;;9.20;49.40;;;;;;5062848;28;20453;-79
2024/01/09 08:24:54;;;;;;;4.20;2.37;;;9.20;49.50;;;;;;5062295;28;20793;-79
2024/01/09 08:27:24;;;;;;;3.83;2.40;;;9.20;49.40;;;;;;5073481;28;20465;-79
2024/01/09 08:29:52;;;;;;;2.70;2.50;;;9.30;49.60;;;;;;5074140;28;20532;-80
2024/01/09 08:32:22;;;;;;;8.07;2.73;;;9.30;49.80;;;;;;5076146;28;20460;-80
2024/01/09 08:34:50;;;;;;;3.47;2.50;;;9.30;49.80;;;;;;5074709;28;20430;-80
2024/01/09 08:37:19;;;;;;;5.53;2.70;;;9.40;49.90;;;;;;5065642;28;20460;-79
2024/01/09 08:39:47;;;;;;;12.27;3.03;;;9.40;50.00;;;;;;5070069;28;20431;-79
2024/01/09 08:42:15;;;;;;;3.67;2.77;;;9.40;49.90;;;;;;5068850;28;20483;-80
2024/01/09 08:44:44;;;;;;;7.37;3.77;;;9.50;50.20;;;;;;5069042;28;20426;-79
2024/01/09 08:47:12;;;;;;;4.83;3.37;;;9.60;50.40;;;;;;5063738;28;20462;-79
2024/01/09 08:49:40;;;;;;;8.83;4.60;;;9.70;50.50;;;;;;5065525;28;20467;-79
2024/01/09 08:52:08;;;;;;;8.97;4.10;;;9.80;50.60;;;;;;5064525;28;20454;-78
2024/01/09 08:54:36;;;;;;;6.10;3.87;;;9.90;50.70;;;;;;5065479;28;20533;-79
2024/01/09 08:57:05;;;;;;;7.10;4.37;;;10.10;50.00;;;;;;5063293;28;20521;-78
2024/01/09 08:59:33;;;;;;;9.80;5.20;;;10.30;50.20;;;;;;5064136;28;20463;-79
2024/01/09 09:02:02;;;;;;;6.23;4.73;;;10.50;50.50;;;;;;5062935;28;20494;-79
2024/01/09 09:04:30;;;;;;;7.30;4.70;;;10.70;50.70;;;;;;5060659;28;20434;-78
2024/01/09 09:06:58;;;;;;;4.43;3.90;;;11.00;50.90;;;;;;5067163;28;20453;-80
2024/01/09 09:09:27;;;;;;;13.20;4.40;;;11.20;51.10;;;;;;5069475;28;20458;-78
2024/01/09 09:11:54;;;;;;;7.60;4.90;;;11.40;51.20;;;;;;5067653;28;20541;-78
2024/01/09 09:14:22;;;;;;;10.10;4.40;;;11.60;51.20;;;;;;5070256;28;20435;-81
2024/01/09 09:16:50;;;;;;;6.90;4.77;;;11.70;51.30;;;;;;5063508;28;20439;-80
2024/01/09 09:19:22;;;;;;;6.70;4.70;;;11.90;51.40;;;;;;5069694;28;20426;-80
2024/01/09 09:21:50;;;;;;;7.87;4.93;;;12.00;51.40;;;;;;5077515;28;20461;-82
2024/01/09 09:24:18;;;;;;;5.43;3.97;;;12.10;51.60;;;;;;5081274;28;20429;-82
2024/01/09 09:26:46;;;;;;;5.03;4.17;;;12.20;51.70;;;;;;5082084;28;20457;-81
2024/01/09 09:29:14;;;;;;;6.57;4.40;;;12.20;51.80;;;;;;5085284;28;20453;-84
2024/01/09 09:31:58;;;;;;;6.47;4.30;;;12.30;51.90;;;;;;5085589;28;20442;-80
2024/01/09 09:34:28;;;;;;;8.50;5.03;;;12.40;52.00;;;;;;5085277;28;20422;-82
2024/01/09 09:37:00;;;;;;;5.80;4.30;;;12.50;52.10;;;;;;5085565;28;20444;-83
2024/01/09 09:39:29;;;;;;;4.73;4.23;;;12.50;52.00;;;;;;5085211;28;20426;-86
2024/01/09 09:41:57;;;;;;;6.67;4.23;;;12.60;52.10;;;;;;5086161;28;20469;-82
2024/01/09 09:44:26;;;;;;;4.33;3.80;;;12.60;52.20;;;;;;5088874;28;20465;-83
2024/01/09 09:46:55;;;;;;;7.20;4.00;;;12.60;52.20;;;;;;5088002;28;20429;-82
2024/01/09 09:49:23;;;;;;;9.30;4.53;;;12.70;52.20;;;;;;5088342;28;20496;-82
2024/01/09 09:51:53;;;;;;;12.40;4.70;;;12.70;52.40;;;;;;5083432;28;20506;-82
2024/01/09 09:54:23;;;;;;;5.97;4.77;;;12.70;52.40;;;;;;5084318;28;20433;-82
2024/01/09 09:56:51;;;;;;;6.33;3.77;;;12.80;52.50;;;;;;5083620;28;20418;-83
2024/01/09 09:59:19;;;;;;;4.73;3.90;;;12.80;52.60;;;;;;5079786;28;20422;-83
2024/01/09 10:01:48;;;;;;;5.23;3.90;;;12.90;52.70;;;;;;5082301;28;20453;-81
2024/01/09 10:04:26;;;;;;;4.97;3.63;;;13.10;53.10;;;;;;5084844;28;20445;-82
2024/01/09 10:06:58;;;;;;;4.50;3.80;;;13.30;53.40;;;;;;5083217;28;20429;-82
2024/01/09 10:09:29;;;;;;;5.43;3.60;;;13.50;53.50;;;;;;5082262;28;20484;-82
2024/01/09 10:11:57;;;;;;;4.80;3.60;;;13.70;53.40;;;;;;5085229;28;20462;-82
2024/01/09 10:14:26;;;;;;;6.00;3.90;;;13.90;53.40;;;;;;5086610;28;20446;-83
2024/01/09 10:16:55;;;;;;;5.73;3.90;;;14.20;53.30;;;;;;5089108;28;20438;-83
2024/01/09 10:19:23;;;;;;;6.73;3.90;;;14.40;53.30;;;;;;5089742;28;20438;-82
2024/01/09 10:21:51;;;;;;;4.90;3.47;;;14.60;53.20;;;;;;5099588;22;20493;-77
2024/01/09 10:24:21;;;;;;;4.13;3.80;;;14.80;53.10;;;;;;5050321;28;20473;-76
2024/01/09 10:26:51;;;;;;;4.17;3.73;;;15.00;53.20;;;;;;5050398;28;20430;-76
2024/01/09 10:29:19;;;;;;;4.80;3.10;;;15.20;53.20;;;;;;5050072;28;20516;-76
2024/01/09 10:31:47;;;;;;;4.17;3.30;;;15.40;53.30;;;;;;5053585;28;20503;-76
2024/01/09 10:34:15;;;;;;;4.60;3.60;;;15.60;53.30;;;;;;5073931;28;20445;-76
2024/01/09 10:36:43;;;;;;;5.37;3.23;;;15.80;53.40;;;;;;5073406;28;21034;-76
2024/01/09 10:39:12;;;;;;;3.77;2.90;;;16.00;53.40;;;;;;5073424;28;20434;-76
2024/01/09 10:41:41;;;;;;;3.60;3.30;;;16.10;53.40;;;;;;5072842;28;20489;-76
2024/01/09 10:44:09;;;;;;;4.67;3.50;;;16.30;53.40;;;;;;5073463;28;20429;-77
2024/01/09 10:46:37;;;;;;;3.80;3.40;;;16.50;53.40;;;;;;5073236;28;20468;-77
2024/01/09 10:49:06;;;;;;;3.30;3.00;;;16.70;53.50;;;;;;5073223;28;20474;-77
2024/01/09 10:51:34;;;;;;;3.43;2.90;;;16.90;53.40;;;;;;5070962;28;20450;-77
2024/01/09 10:54:02;;;;;;;3.37;3.07;;;17.10;53.40;;;;;;5074516;28;20984;-77
2024/01/09 10:56:30;;;;;;;3.30;2.97;;;17.30;53.20;;;;;;5072905;28;20438;-77
2024/01/09 10:59:00;;;;;;;4.63;3.40;;;17.50;53.20;;;;;;5072810;28;20793;-77
2024/01/09 11:01:28;;;;;;;5.97;3.03;;;17.60;53.10;;;;;;5073140;28;20484;-76
2024/01/09 11:03:56;;;;;;;3.33;2.83;;;17.80;52.90;;;;;;5072607;28;20840;-77
2024/01/09 11:06:24;;;;;;;3.53;3.17;;;18.00;53.30;;;;;;5071809;28;20445;-78
2024/01/09 11:08:55;;;;;;;3.90;3.20;;;18.20;52.80;;;;;;5062557;28;20470;-76
2024/01/09 11:11:23;;;;;;;3.43;3.13;;;18.40;52.50;;;;;;5052844;28;20431;-76
2024/01/09 11:13:53;;;;;;;5.80;3.03;;;18.60;52.50;;;;;;5053582;28;20512;-76
2024/01/09 11:16:23;;;;;;;3.60;2.67;;;18.80;52.40;;;;;;5053086;28;20534;-77
2024/01/09 11:18:51;;;;;;;3.73;3.00;;;19.00;52.10;;;;;;5054040;28;20539;-78
2024/01/09 11:21:24;;;;;;;4.13;2.77;;;19.20;52.00;;;;;;5069082;28;20442;-76
2024/01/09 11:24:00;;;;;;;3.13;2.87;;;19.40;51.80;;;;;;5074170;28;20491;-78
2024/01/09 11:26:29;;;;;;;2.20;2.03;;;19.60;51.70;;;;;;5066616;28;20438;-75
2024/01/09 11:28:59;;;;;;;2.90;2.20;;;20.20;54.60;;;;;;5062234;28;20474;-76
2024/01/09 11:31:29;;;;;;;5.27;2.37;;;20.60;53.30;;;;;;5069223;28;20534;-75
2024/01/09 11:34:01;;;;;;;3.77;1.90;;;20.90;52.60;;;;;;5058264;28;20418;-76
2024/01/09 11:36:29;;;;;;;3.10;1.93;;;21.40;51.60;;;;;;5079334;28;20421;-75
2024/01/09 11:38:59;;;;;;;5.70;2.30;;;21.80;50.70;;;;;;5080364;28;20438;-76
2024/01/09 11:41:32;;;;;;;2.50;1.97;;;22.10;49.90;;;;;;5081506;28;20426;-76
2024/01/09 11:44:03;;;;;;;2.97;2.20;;;22.30;49.20;;;;;;5081140;28;20423;-75
2024/01/09 11:46:35;;;;;;;2.03;1.73;;;22.50;48.50;;;;;;5082065;28;20495;-73
2024/01/09 11:49:03;;;;;;;3.33;2.13;;;22.70;48.10;;;;;;5082642;28;20465;-76
2024/01/09 11:51:33;;;;;;;3.13;1.90;;;22.80;47.60;;;;;;5080593;28;20419;-76
2024/01/09 11:54:02;;;;;;;7.60;2.20;;;23.00;47.30;;;;;;5082050;28;20415;-76
2024/01/09 11:56:30;;;;;;;1.90;1.80;;;23.10;47.10;;;;;;5081905;28;20435;-75
2024/01/09 11:58:58;;;;;;;3.20;1.83;;;23.20;46.70;;;;;;5081416;28;20933;-73
2024/01/09 12:01:27;;;;;;;1.90;1.80;;;23.30;46.40;;;;;;5078162;28;20900;-73
2024/01/09 12:03:57;;;;;;;2.00;1.80;;;23.40;46.00;;;;;;5080194;28;20424;-74
2024/01/09 12:06:26;;;;;;;2.43;2.23;;;23.50;45.60;;;;;;5077863;28;20796;-74
2024/01/09 12:08:54;;;;;;;2.30;2.10;;;23.50;45.20;;;;;;5078965;28;20497;-73
2024/01/09 12:11:23;;;;;;;1.97;1.80;;;23.60;44.80;;;;;;5082051;28;20442;-76
2024/01/09 12:13:58;;;;;;;2.73;2.23;;;23.50;43.70;;;;;;5077874;28;20425;-78
2024/01/09 12:16:28;;;;;;;3.20;1.97;;;23.40;43.60;;;;;;5080625;28;20528;-77
2024/01/09 12:18:59;;;;;;;1.93;1.83;;;23.30;44.00;;;;;;5077347;28;20412;-78
2024/01/09 12:21:30;;;;;;;2.73;1.70;;;23.20;44.20;;;;;;5074639;28;21005;-75
2024/01/09 12:23:59;;;;;;;2.67;2.10;;;23.10;44.70;;;;;;5080222;28;20457;-77
2024/01/09 12:26:49;;;;;;;2.50;1.50;;;23.10;45.00;;;;;;5080610;28;20414;-76
2024/01/09 12:29:17;;;;;;;1.80;1.70;;;23.00;45.20;;;;;;5079145;28;20465;-76
2024/01/09 12:31:45;;;;;;;2.20;2.10;;;23.00;45.50;;;;;;5079558;28;20492;-76
2024/01/09 12:34:15;;;;;;;2.13;2.03;;;23.00;45.70;;;;;;5078798;28;20437;-74
2024/01/09 12:36:43;;;;;;;5.43;2.23;;;23.00;45.80;;;;;;5080009;28;20404;-77
2024/01/09 12:39:12;;;;;;;2.40;2.20;;;23.00;46.00;;;;;;5075704;28;20515;-77
2024/01/09 12:41:41;;;;;;;2.10;1.90;;;23.00;46.10;;;;;;5077904;28;20499;-77
2024/01/09 12:44:09;;;;;;;2.17;1.97;;;23.00;46.00;;;;;;5071970;28;20445;-78
2024/01/09 12:46:37;;;;;;;2.17;1.90;;;23.10;46.30;;;;;;5071927;28;20850;-79
2024/01/09 12:49:05;;;;;;;2.30;2.10;;;23.00;46.10;;;;;;5060075;28;20500;-81
2024/01/09 12:51:35;;;;;;;3.07;1.83;;;23.10;46.20;;;;;;5068227;28;20420;-80
2024/01/09 12:54:03;;;;;;;4.83;2.20;;;23.10;46.40;;;;;;5077316;28;20546;-81
2024/01/09 12:56:31;;;;;;;1.73;1.63;;;23.10;46.30;;;;;;5080974;28;20445;-79